Time;durP1;ratioP1;P1;durP2;ratioP2;P2;SDS_P1;SDS_P2;PMS_P1;PMS_P2;Temp;Humidity;BMP_temperature;BMP_pressure;BME280_temperature;BME280_humidity;BME280_pressure;Samples;Min_cycle;Max_cycle;Signal;HPM_P1;HPM_P2
2021/06/05 00:02:28;;;;;;;4.85;2.40;;;;;;;15.58;68.17;101414.75;5011914;28;20523;-88
2021/06/05 00:04:56;;;;;;;2.78;1.88;;;;;;;15.53;68.52;101414.25;5012045;28;20076;-88
2021/06/05 00:07:21;;;;;;;6.80;2.65;;;;;;;15.56;69.26;101416.66;5012101;28;20025;-88
2021/06/05 00:09:47;;;;;;;4.72;2.38;;;;;;;15.52;69.73;101418.72;5011472;28;20040;-89
2021/06/05 00:12:15;;;;;;;4.40;2.13;;;;;;;15.53;70.12;101414.25;5012021;28;20423;-88
2021/06/05 00:14:41;;;;;;;9.13;2.97;;;;;;;15.48;71.08;101419.88;5010840;28;20072;-89
2021/06/05 00:17:06;;;;;;;7.65;2.85;;;;;;;15.52;71.21;101418.72;5011549;28;20041;-88
2021/06/05 00:19:32;;;;;;;3.58;2.50;;;;;;;15.50;71.28;101414.47;5010915;28;20068;-88
2021/06/05 00:21:57;;;;;;;7.63;2.90;;;;;;;15.54;71.55;101423.88;5011803;28;20022;-89
2021/06/05 00:24:23;;;;;;;5.65;2.83;;;;;;;15.50;72.22;101427.72;5011981;28;20028;-88
2021/06/05 00:26:50;;;;;;;6.93;3.10;;;;;;;15.54;72.16;101427.41;5011906;28;20026;-88
2021/06/05 00:29:15;;;;;;;8.27;2.58;;;;;;;15.52;72.55;101425.78;5010830;28;20357;-88
2021/06/05 00:31:41;;;;;;;7.05;3.30;;;;;;;15.53;72.46;101422.22;5011164;28;20029;-88
2021/06/05 00:34:06;;;;;;;4.75;2.65;;;;;;;15.51;72.89;101419.66;5011950;28;20037;-89
2021/06/05 00:36:32;;;;;;;6.85;2.75;;;;;;;15.46;73.46;101422.66;5015572;28;20431;-88
2021/06/05 00:38:58;;;;;;;6.65;2.83;;;;;;;15.47;73.30;101416.38;5015380;28;20037;-88
2021/06/05 00:41:26;;;;;;;5.57;2.60;;;;;;;15.50;73.08;101411.81;5007186;28;20030;-88
2021/06/05 00:43:55;;;;;;;8.45;2.97;;;;;;;15.42;73.81;101415.91;5014381;28;20026;-89
2021/06/05 00:46:23;;;;;;;7.18;2.90;;;;;;;15.53;73.22;101409.81;5015759;28;20025;-88
2021/06/05 00:48:49;;;;;;;6.63;2.63;;;;;;;15.42;73.58;101412.38;5015497;28;20041;-88
2021/06/05 00:51:17;;;;;;;4.50;2.60;;;;;;;15.38;74.34;101409.13;5003584;28;20118;-89
2021/06/05 00:53:43;;;;;;;9.25;3.28;;;;;;;15.39;74.94;101410.81;4994607;28;20049;-88
2021/06/05 00:56:11;;;;;;;6.47;3.00;;;;;;;15.43;74.27;101411.44;5011013;28;20524;-88
2021/06/05 00:58:37;;;;;;;6.07;3.10;;;;;;;15.40;74.72;101403.72;4995856;28;20057;-88
2021/06/05 01:01:10;;;;;;;7.35;2.88;;;;;;;15.44;74.55;101398.09;5003456;28;20038;-88
2021/06/05 01:03:38;;;;;;;5.95;3.45;;;;;;;15.45;74.84;101397.13;5015346;28;20480;-88
2021/06/05 01:06:34;;;;;;;6.68;3.28;;;;;;;15.54;74.37;101394.75;5015404;28;20034;-88
2021/06/05 01:09:21;;;;;;;10.25;3.33;;;;;;;15.53;74.47;101393.09;5015077;28;20060;-88
2021/06/05 01:12:03;;;;;;;7.85;3.75;;;;;;;15.56;73.97;101400.78;5008993;28;20476;-88
2021/06/05 01:14:48;;;;;;;7.32;3.30;;;;;;;15.47;74.36;101403.16;5015118;28;20506;-88
2021/06/05 01:17:27;;;;;;;6.72;3.58;;;;;;;15.50;74.37;101396.81;5014902;28;20049;-88
2021/06/05 01:20:08;;;;;;;6.45;3.33;;;;;;;15.43;74.48;101406.16;5014532;28;20030;-88
2021/06/05 01:22:51;;;;;;;5.05;3.60;;;;;;;15.45;74.34;101405.06;4995234;28;20489;-88
2021/06/05 01:26:07;;;;;;;6.45;3.20;;;;;;;15.37;74.55;101402.13;4995308;28;20030;-88
2021/06/05 01:28:39;;;;;;;8.52;3.65;;;;;;;15.30;73.85;101400.88;4986044;28;20038;-88
2021/06/05 01:31:10;;;;;;;6.47;3.10;;;;;;;15.31;74.04;101410.53;5002487;28;20026;-88
2021/06/05 01:33:38;;;;;;;;;;;;;;;15.30;74.14;101406.16;5015050;28;20034;-88
2021/06/05 01:36:06;;;;;;;5.90;3.78;;;;;;;15.15;75.46;101402.84;5013591;28;20028;-88
2021/06/05 01:38:34;;;;;;;7.68;3.60;;;;;;;15.14;75.49;101410.88;5014636;28;20456;-88
2021/06/05 01:41:01;;;;;;;9.77;3.97;;;;;;;15.11;75.59;101405.81;5013893;28;20041;-88
2021/06/05 01:43:28;;;;;;;5.60;3.88;;;;;;;15.02;75.62;101399.38;5014272;28;20392;-88
2021/06/05 01:45:57;;;;;;;4.82;3.45;;;;;;;15.03;76.24;101411.66;5014474;28;20103;-88
2021/06/05 01:48:22;;;;;;;9.25;3.80;;;;;;;14.99;76.21;101413.66;5013960;28;20469;-88
2021/06/05 01:50:49;;;;;;;8.15;3.55;;;;;;;14.97;76.07;101412.94;5012441;28;20040;-88
2021/06/05 01:53:26;;;;;;;6.97;3.20;;;;;;;15.01;76.27;101414.41;5014304;28;20032;-88
2021/06/05 01:55:56;;;;;;;4.30;3.33;;;;;;;14.96;76.13;101411.22;5014207;28;20026;-88
2021/06/05 01:58:27;;;;;;;4.75;3.25;;;;;;;14.93;76.75;101402.66;5014295;28;20049;-88
2021/06/05 02:00:54;;;;;;;;;;;;;;;15.00;76.22;101402.13;5010805;28;20026;-88
2021/06/05 02:03:21;;;;;;;7.22;3.55;;;;;;;14.89;77.56;101404.69;4994887;28;19997;-88
2021/06/05 02:05:47;;;;;;;5.40;3.97;;;;;;;14.86;77.13;101402.25;5013467;28;20518;-89
2021/06/05 02:08:16;;;;;;;7.20;3.70;;;;;;;14.86;77.94;101402.25;5013288;28;20034;-88
2021/06/05 02:10:43;;;;;;;6.22;3.53;;;;;;;14.91;76.95;101405.44;5013741;28;20049;-88
2021/06/05 02:13:19;;;;;;;5.65;3.30;;;;;;;14.91;77.08;101402.78;5014132;28;20057;-88
2021/06/05 02:15:54;;;;;;;5.90;3.60;;;;;;;14.86;76.10;101403.09;5013912;28;20029;-88
2021/06/05 02:18:24;;;;;;;6.68;3.65;;;;;;;14.95;76.37;101403.38;5013860;28;20026;-88
2021/06/05 02:20:55;;;;;;;7.18;3.65;;;;;;;14.78;76.24;101397.50;5013654;28;20045;-88
2021/06/05 02:23:26;;;;;;;7.80;3.75;;;;;;;14.81;76.28;101393.78;5013336;28;20038;-88
2021/06/05 02:25:57;;;;;;;6.70;3.88;;;;;;;14.78;76.02;101400.13;5013749;28;20030;-88
2021/06/05 02:28:23;;;;;;;6.03;3.53;;;;;;;14.73;75.68;101406.69;5013775;28;20056;-88
2021/06/05 02:30:49;;;;;;;8.00;3.70;;;;;;;14.66;76.08;101401.84;5012184;28;20464;-88
2021/06/05 02:33:15;;;;;;;8.50;3.45;;;;;;;14.66;76.68;101406.28;5012975;28;20030;-88
2021/06/05 02:35:43;;;;;;;5.45;3.58;;;;;;;14.79;75.82;101414.19;5003882;28;20507;-88
2021/06/05 02:38:09;;;;;;;6.30;3.55;;;;;;;14.77;75.29;101408.16;4993999;28;20026;-89
2021/06/05 02:40:37;;;;;;;5.20;3.15;;;;;;;14.65;75.73;101413.38;4993973;28;20077;-88
2021/06/05 02:43:08;;;;;;;7.60;3.60;;;;;;;14.54;76.48;101405.31;5009512;28;20495;-88
2021/06/05 02:45:51;;;;;;;8.88;3.45;;;;;;;14.64;76.07;101408.19;5013443;28;20399;-88
2021/06/05 02:48:16;;;;;;;8.88;3.80;;;;;;;14.60;76.45;101412.84;5013369;28;20096;-88
2021/06/05 02:50:51;;;;;;;5.70;3.75;;;;;;;14.54;77.00;101407.09;5012911;28;20369;-88
2021/06/05 02:53:17;;;;;;;8.57;4.05;;;;;;;14.52;77.82;101412.50;5031347;28;20098;-88
2021/06/05 02:55:44;;;;;;;6.63;4.22;;;;;;;14.54;77.76;101407.94;5033072;28;20025;-89
2021/06/05 02:58:11;;;;;;;8.25;4.25;;;;;;;14.51;78.50;101408.16;5032159;28;20108;-88
2021/06/05 03:00:39;;;;;;;5.78;3.95;;;;;;;14.55;77.32;101408.78;5032538;28;20036;-88
2021/06/05 03:03:07;;;;;;;9.52;3.80;;;;;;;14.54;76.43;101401.81;5000066;28;20030;-89
2021/06/05 03:05:34;;;;;;;4.13;3.55;;;;;;;14.49;76.25;101399.47;4993457;28;20511;-88
2021/06/05 03:08:00;;;;;;;5.85;3.47;;;;;;;14.48;76.52;101403.09;4993268;28;20526;-89
2021/06/05 03:10:28;;;;;;;5.82;3.38;;;;;;;14.43;76.32;101406.03;4993210;28;20033;-89
2021/06/05 03:12:54;;;;;;;6.68;3.92;;;;;;;14.38;76.14;101402.03;5006347;28;20026;-88
2021/06/05 03:15:20;;;;;;;8.07;3.10;;;;;;;14.33;76.31;101415.53;5012723;28;20026;-88
2021/06/05 03:17:45;;;;;;;6.85;3.83;;;;;;;14.36;76.83;101409.22;5012700;28;20034;-89
2021/06/05 03:20:16;;;;;;;7.75;4.47;;;;;;;14.29;77.84;101408.75;5012772;28;20060;-89
2021/06/05 03:22:41;;;;;;;7.07;4.25;;;;;;;14.18;78.22;101408.63;5012873;28;20129;-89
2021/06/05 03:25:08;;;;;;;6.10;3.65;;;;;;;14.20;77.60;101404.13;5012616;28;20136;-89
2021/06/05 03:27:33;;;;;;;6.78;3.38;;;;;;;14.15;76.92;101412.34;5012326;28;20539;-89
2021/06/05 03:29:59;;;;;;;5.40;3.35;;;;;;;14.10;76.59;101414.47;5012408;28;20125;-89
2021/06/05 03:32:24;;;;;;;10.35;4.32;;;;;;;14.00;77.56;101418.63;5011443;28;20369;-88
2021/06/05 03:34:50;;;;;;;4.90;3.35;;;;;;;13.94;77.34;101414.63;5011908;28;20034;-89
2021/06/05 03:37:15;;;;;;;6.68;3.40;;;;;;;13.93;77.39;101412.09;5012766;28;20065;-89
2021/06/05 03:39:41;;;;;;;5.80;4.25;;;;;;;13.93;77.57;101412.09;5011201;28;20057;-88
2021/06/05 03:42:07;;;;;;;6.65;3.63;;;;;;;13.89;77.30;101416.72;5012200;28;20487;-89
2021/06/05 03:44:33;;;;;;;6.70;4.68;;;;;;;13.84;76.39;101430.22;5012454;28;20543;-89
2021/06/05 03:46:58;;;;;;;9.43;4.25;;;;;;;13.67;77.79;101417.28;5012496;28;20153;-89
2021/06/05 03:49:24;;;;;;;5.20;3.70;;;;;;;13.60;77.73;101423.88;5012086;28;20029;-88
2021/06/05 03:51:49;;;;;;;6.82;4.22;;;;;;;13.72;77.93;101422.25;5012239;28;20022;-88
2021/06/05 03:54:15;;;;;;;10.40;4.35;;;;;;;13.74;77.54;101423.81;5012555;28;20096;-89
2021/06/05 03:56:40;;;;;;;5.32;4.10;;;;;;;13.72;77.72;101427.53;5012243;28;20403;-89
2021/06/05 03:59:08;;;;;;;5.35;3.42;;;;;;;13.68;77.53;101418.94;5012288;28;20034;-89
2021/06/05 04:01:33;;;;;;;14.30;4.63;;;;;;;13.56;78.26;101430.31;5011876;28;20495;-88
2021/06/05 04:03:59;;;;;;;6.90;3.88;;;;;;;13.63;78.29;101426.34;5010661;28;20022;-89
2021/06/05 04:06:26;;;;;;;7.20;4.22;;;;;;;13.65;78.37;101427.09;5012122;28;20108;-89
2021/06/05 04:08:52;;;;;;;6.68;4.15;;;;;;;13.52;78.47;101428.81;5012124;28;20029;-88
2021/06/05 04:11:18;;;;;;;8.95;4.82;;;;;;;13.44;79.71;101429.28;5018076;28;20623;-88
2021/06/05 04:13:45;;;;;;;12.25;4.93;;;;;;;13.39;78.62;101432.25;5017182;28;20029;-89
2021/06/05 04:16:11;;;;;;;8.82;4.13;;;;;;;13.18;78.97;101426.47;5016795;28;20525;-88
2021/06/05 04:18:39;;;;;;;6.95;4.00;;;;;;;13.10;79.60;101424.31;5018663;28;20030;-89
2021/06/05 04:21:08;;;;;;;7.50;4.38;;;;;;;13.08;81.96;101426.22;5018379;28;20026;-88
2021/06/05 04:23:33;;;;;;;7.47;4.90;;;;;;;13.13;81.78;101430.34;5018388;28;20501;-88
2021/06/05 04:25:59;;;;;;;6.07;5.10;;;;;;;13.21;81.09;101415.75;5018524;28;20108;-89
2021/06/05 04:28:27;;;;;;;9.82;3.58;;;;;;;13.28;81.20;101416.22;5018342;28;20438;-89
2021/06/05 04:30:52;;;;;;;8.20;4.70;;;;;;;13.36;81.02;101423.66;5018294;28;20092;-89
2021/06/05 04:33:20;;;;;;;6.95;4.43;;;;;;;13.34;80.63;101421.13;5018515;28;20030;-89
2021/06/05 04:35:45;;;;;;;6.47;5.00;;;;;;;13.29;81.16;101424.06;5018666;28;20044;-89
2021/06/05 04:38:11;;;;;;;6.65;4.72;;;;;;;13.32;81.12;101423.00;5018706;28;20467;-89
2021/06/05 04:40:39;;;;;;;6.30;4.40;;;;;;;13.43;80.88;101417.91;5018358;28;20049;-89
2021/06/05 04:43:06;;;;;;;7.07;5.32;;;;;;;13.44;80.55;101419.59;5018384;28;20014;-88
2021/06/05 04:45:32;;;;;;;12.13;5.88;;;;;;;13.45;80.91;101423.09;5018117;28;20030;-88
2021/06/05 04:47:57;;;;;;;9.30;6.35;;;;;;;13.46;80.76;101420.34;5011276;28;20026;-89
2021/06/05 04:50:26;;;;;;;9.85;5.43;;;;;;;13.53;80.62;101412.88;4998623;28;20061;-88
2021/06/05 04:52:52;;;;;;;9.90;5.50;;;;;;;13.45;81.12;101400.19;4998835;28;20019;-88
2021/06/05 04:55:18;;;;;;;8.00;5.28;;;;;;;13.57;81.22;101405.63;4998452;28;20036;-88
2021/06/05 04:57:44;;;;;;;8.38;5.20;;;;;;;13.59;81.79;101406.38;4998617;28;20137;-88
2021/06/05 05:00:13;;;;;;;8.15;5.65;;;;;;;13.64;81.73;101399.00;4998421;28;20033;-88
2021/06/05 05:02:40;;;;;;;10.00;5.80;;;;;;;13.64;81.29;101410.38;5014708;28;20037;-89
2021/06/05 05:05:06;;;;;;;7.25;5.20;;;;;;;13.67;81.22;101412.00;5018314;28;20026;-89
2021/06/05 05:07:31;;;;;;;8.85;5.55;;;;;;;13.65;81.27;101413.88;5018098;28;20105;-88
2021/06/05 05:09:56;;;;;;;9.32;5.80;;;;;;;13.73;81.87;101416.03;5018188;28;20083;-89
2021/06/05 05:12:22;;;;;;;9.32;5.68;;;;;;;13.68;82.07;101411.03;5018202;28;20037;-88
2021/06/05 05:14:47;;;;;;;12.15;6.85;;;;;;;13.74;81.18;101423.00;5018089;28;20109;-89
2021/06/05 05:17:13;;;;;;;7.15;5.28;;;;;;;13.80;82.36;101427.88;5017676;28;20430;-89
2021/06/05 05:19:38;;;;;;;10.52;6.25;;;;;;;13.78;82.72;101425.31;5016904;28;20057;-89
2021/06/05 05:22:04;;;;;;;9.02;5.45;;;;;;;13.86;82.65;101428.34;5015731;28;20353;-89
2021/06/05 05:24:29;;;;;;;9.40;5.57;;;;;;;13.95;82.77;101426.03;5014716;28;20033;-89
2021/06/05 05:26:55;;;;;;;12.93;6.32;;;;;;;13.94;83.27;101419.03;5015088;28;20476;-89
2021/06/05 05:29:20;;;;;;;11.85;6.30;;;;;;;14.09;83.36;101429.44;5015130;28;20391;-89
2021/06/05 05:31:46;;;;;;;8.23;6.30;;;;;;;14.12;83.41;101433.69;5014670;28;20037;-89
2021/06/05 05:34:11;;;;;;;8.95;5.78;;;;;;;14.16;83.83;101429.03;5013453;28;20026;-89
2021/06/05 05:36:39;;;;;;;9.70;5.68;;;;;;;14.27;83.03;101432.63;5013611;28;20506;-88
2021/06/05 05:39:14;;;;;;;11.43;5.40;;;;;;;14.29;83.26;101440.47;5005970;28;20370;-89
2021/06/05 05:41:41;;;;;;;9.23;5.50;;;;;;;14.37;83.67;101437.31;5013475;28;20112;-89
2021/06/05 05:44:07;;;;;;;8.48;5.95;;;;;;;14.33;84.15;101426.09;5003611;28;20053;-89
2021/06/05 05:46:33;;;;;;;8.50;5.13;;;;;;;14.44;84.26;101438.59;5011656;28;20472;-89
2021/06/05 05:48:59;;;;;;;7.95;4.93;;;;;;;14.44;84.26;101433.31;5011011;28;20103;-89
2021/06/05 05:51:26;;;;;;;7.07;5.10;;;;;;;14.57;83.75;101438.63;4994705;28;20457;-88
2021/06/05 05:53:52;;;;;;;7.82;5.72;;;;;;;14.54;84.44;101434.38;5010251;28;20029;-87
2021/06/05 05:56:21;;;;;;;8.02;5.22;;;;;;;14.61;85.00;101435.69;5012025;28;20518;-88
2021/06/05 05:58:49;;;;;;;8.85;6.18;;;;;;;14.68;84.64;101431.66;5012750;28;20392;-89
2021/06/05 06:01:16;;;;;;;7.32;4.70;;;;;;;14.68;84.80;101431.66;5006949;28;20033;-89
2021/06/05 06:03:41;;;;;;;10.30;5.50;;;;;;;14.88;84.65;101426.78;5013817;28;20076;-88
2021/06/05 06:06:07;;;;;;;8.00;5.22;;;;;;;15.00;84.53;101428.56;5014039;28;20061;-89
2021/06/05 06:08:34;;;;;;;8.48;5.88;;;;;;;15.21;84.97;101422.72;5007318;28;20030;-89
2021/06/05 06:11:00;;;;;;;10.25;5.97;;;;;;;15.80;82.86;101424.66;5013020;28;20554;-90
2021/06/05 06:13:25;;;;;;;10.10;5.95;;;;;;;16.52;78.84;101427.16;5014225;28;20034;-90
2021/06/05 06:15:51;;;;;;;8.45;5.50;;;;;;;17.18;76.96;101424.72;5013925;28;20108;-89
2021/06/05 06:18:17;;;;;;;10.07;5.25;;;;;;;17.65;74.29;101424.47;5013010;28;20032;-90
2021/06/05 06:20:50;;;;;;;8.38;5.00;;;;;;;18.01;72.83;101433.09;5011907;28;20029;-89
2021/06/05 06:23:25;;;;;;;7.05;4.28;;;;;;;18.24;71.52;101434.63;5004860;28;20112;-89
2021/06/05 06:25:52;;;;;;;7.68;4.07;;;;;;;18.68;69.95;101431.00;4994158;28;20091;-89
2021/06/05 06:28:21;;;;;;;7.32;4.10;;;;;;;19.71;63.82;101441.50;5007468;28;20034;-90
2021/06/05 06:30:47;;;;;;;7.35;3.50;;;;;;;20.41;59.43;101438.66;5013338;28;20061;-90
2021/06/05 06:33:14;;;;;;;5.88;3.15;;;;;;;21.27;57.33;101440.31;4996814;28;20519;-90
2021/06/05 06:35:40;;;;;;;6.38;2.60;;;;;;;22.09;56.23;101439.34;5000239;28;20449;-89
2021/06/05 06:38:11;;;;;;;7.20;3.17;;;;;;;22.91;51.20;101441.75;4973007;28;20105;-90
2021/06/05 06:40:38;;;;;;;5.95;2.55;;;;;;;23.40;49.54;101442.00;4959566;28;20106;-90
2021/06/05 06:43:06;;;;;;;4.28;2.17;;;;;;;23.95;48.50;101446.81;4973722;28;20059;-90
2021/06/05 06:45:32;;;;;;;9.05;2.65;;;;;;;24.29;46.62;101444.94;4971796;28;20045;-90
2021/06/05 06:47:58;;;;;;;7.68;2.20;;;;;;;24.59;45.31;101442.59;4956792;28;20477;-89
2021/06/05 06:50:26;;;;;;;7.85;2.72;;;;;;;24.68;44.29;101449.59;4956071;28;20129;-89
2021/06/05 06:52:52;;;;;;;6.93;2.05;;;;;;;25.24;44.56;101445.06;4953935;29;20042;-90
2021/06/05 06:55:20;;;;;;;8.75;2.40;;;;;;;25.78;41.02;101451.47;4954926;28;20023;-90
2021/06/05 06:57:46;;;;;;;5.10;1.75;;;;;;;25.92;40.10;101448.88;4954998;28;20059;-91
2021/06/05 07:00:15;;;;;;;3.20;1.40;;;;;;;26.47;39.89;101456.81;4954835;28;20114;-89
2021/06/05 07:02:41;;;;;;;3.80;1.80;;;;;;;26.85;39.99;101454.06;4954703;28;20071;-90
2021/06/05 07:05:07;;;;;;;4.60;1.65;;;;;;;27.24;38.41;101456.47;4955026;28;20066;-90
2021/06/05 07:07:32;;;;;;;5.70;1.73;;;;;;;26.93;38.89;101455.84;4955076;28;20039;-90
2021/06/05 07:10:00;;;;;;;3.90;1.65;;;;;;;27.56;36.85;101458.91;4954787;28;20031;-90
2021/06/05 07:12:26;;;;;;;3.65;1.25;;;;;;;27.58;35.45;101456.88;4956671;28;20030;-90
2021/06/05 07:14:52;;;;;;;4.00;1.20;;;;;;;28.34;33.96;101454.47;4973093;28;20023;-90
2021/06/05 07:17:18;;;;;;;2.95;1.40;;;;;;;28.86;33.93;101461.28;4962880;28;20039;-91
2021/06/05 07:19:44;;;;;;;2.28;0.93;;;;;;;29.04;32.83;101457.22;4954731;28;20478;-90
2021/06/05 07:22:09;;;;;;;3.63;1.02;;;;;;;29.59;32.37;101451.81;4954386;28;20026;-91
2021/06/05 07:24:34;;;;;;;3.03;1.10;;;;;;;30.02;31.31;101452.31;4954478;28;20063;-89
2021/06/05 07:27:00;;;;;;;3.60;1.10;;;;;;;30.20;30.54;101456.28;4954632;28;20023;-89
2021/06/05 07:29:26;;;;;;;3.97;1.20;;;;;;;30.75;29.73;101459.56;4957947;28;20034;-89
2021/06/05 07:31:53;;;;;;;4.25;1.38;;;;;;;31.26;28.78;101452.50;4967083;28;20023;-89
2021/06/05 07:34:22;;;;;;;4.00;1.23;;;;;;;31.30;28.55;101451.03;4971606;28;20109;-88
2021/06/05 07:36:53;;;;;;;5.90;1.52;;;;;;;30.85;28.47;101448.25;4972487;28;20035;-89
2021/06/05 07:39:25;;;;;;;2.72;0.98;;;;;;;31.31;28.82;101457.28;4971195;28;20377;-90
2021/06/05 07:41:51;;;;;;;2.88;1.08;;;;;;;31.18;28.82;101459.03;4959067;28;20031;-89
2021/06/05 07:44:16;;;;;;;2.30;1.00;;;;;;;31.39;29.47;101449.72;4953515;28;20027;-88
2021/06/05 07:46:44;;;;;;;2.70;1.58;;;;;;;31.60;27.24;101459.44;4953403;28;20029;-87
2021/06/05 07:49:09;;;;;;;3.45;0.93;;;;;;;31.65;28.13;101458.78;4954012;28;20023;-88
2021/06/05 07:51:35;;;;;;;3.00;1.08;;;;;;;32.23;27.26;101455.03;4954068;28;20046;-89
2021/06/05 07:54:00;;;;;;;6.72;1.63;;;;;;;31.96;26.65;101452.50;4962858;28;20520;-89
2021/06/05 07:56:26;;;;;;;3.28;1.48;;;;;;;32.47;26.29;101458.78;4953691;28;20027;-89
2021/06/05 07:58:51;;;;;;;5.72;1.02;;;;;;;32.83;25.37;101443.56;4954901;28;20143;-88
2021/06/05 08:01:17;;;;;;;3.95;1.23;;;;;;;32.84;26.37;101445.22;4956475;28;20038;-88
2021/06/05 08:03:42;;;;;;;4.30;1.45;;;;;;;32.56;25.61;101449.28;4957238;28;20389;-89
2021/06/05 08:06:08;;;;;;;3.03;1.23;;;;;;;33.08;24.95;101440.75;4969883;28;20430;-89
2021/06/05 08:08:34;;;;;;;3.75;1.05;;;;;;;33.36;25.01;101442.88;4958474;28;20428;-89
2021/06/05 08:10:59;;;;;;;3.58;1.10;;;;;;;33.27;24.98;101441.53;4971154;28;20030;-90
2021/06/05 08:13:24;;;;;;;4.75;1.30;;;;;;;34.00;23.73;101430.63;4971464;28;20039;-88
2021/06/05 08:15:51;;;;;;;2.75;0.73;;;;;;;34.22;21.85;101434.44;4972863;28;20027;-88
2021/06/05 08:18:19;;;;;;;2.35;0.60;;;;;;;34.66;21.66;101431.34;4971002;28;20086;-89
2021/06/05 08:20:47;;;;;;;3.28;1.13;;;;;;;34.60;21.67;101433.13;4963125;28;20050;-89
2021/06/05 08:23:13;;;;;;;2.67;0.90;;;;;;;34.87;22.69;101436.16;4971915;28;20106;-89
2021/06/05 08:25:39;;;;;;;2.70;0.80;;;;;;;34.97;21.97;101435.53;4960441;28;20110;-90
2021/06/05 08:28:05;;;;;;;3.80;1.08;;;;;;;34.46;22.56;101439.88;4971089;28;20031;-90
2021/06/05 08:30:38;;;;;;;2.58;0.75;;;;;;;34.87;23.42;101435.34;4962971;28;20561;-89
2021/06/05 08:33:05;;;;;;;2.58;0.70;;;;;;;35.40;22.57;101439.66;4969205;28;20043;-88
2021/06/05 08:35:31;;;;;;;1.85;0.88;;;;;;;35.39;22.31;101432.56;4972884;28;20030;-88
2021/06/05 08:37:57;;;;;;;3.47;1.20;;;;;;;35.37;22.52;101440.19;4969087;28;20097;-88
2021/06/05 08:40:37;;;;;;;1.48;0.77;;;;;;;35.87;22.38;101439.41;4972191;28;20026;-88
2021/06/05 08:43:03;;;;;;;4.32;1.00;;;;;;;35.28;22.60;101444.38;4971809;28;20524;-88
2021/06/05 08:45:31;;;;;;;2.92;0.75;;;;;;;35.02;22.61;101438.38;4972814;28;20031;-88
2021/06/05 08:47:58;;;;;;;4.53;1.20;;;;;;;35.04;22.16;101438.97;4964353;28;20148;-88
2021/06/05 08:50:29;;;;;;;2.08;0.60;;;;;;;34.53;22.82;101429.69;4955732;28;20027;-88
2021/06/05 08:53:11;;;;;;;1.85;0.73;;;;;;;35.43;21.99;101433.72;4964228;28;20246;-88
2021/06/05 08:55:41;;;;;;;2.65;0.65;;;;;;;35.34;21.99;101430.56;4969209;28;20054;-88
2021/06/05 08:58:39;;;;;;;3.95;1.02;;;;;;;35.35;22.03;101436.88;4975382;28;20109;-89
2021/06/05 09:01:13;;;;;;;3.60;0.82;;;;;;;35.91;21.71;101437.03;4972213;28;20035;-89
2021/06/05 09:03:39;;;;;;;2.75;1.30;;;;;;;35.25;21.72;101433.91;4966237;28;20428;-88
2021/06/05 09:06:10;;;;;;;3.53;0.90;;;;;;;35.94;20.72;101433.78;4975803;28;20473;-88
2021/06/05 09:08:35;;;;;;;1.58;0.57;;;;;;;36.24;20.57;101428.00;4975629;28;20100;-88
2021/06/05 09:11:04;;;;;;;3.65;0.70;;;;;;;35.95;20.09;101429.97;4978815;28;20477;-88
2021/06/05 09:13:29;;;;;;;3.35;0.85;;;;;;;36.12;20.73;101424.50;4969462;28;20482;-90
2021/06/05 09:16:19;;;;;;;2.38;0.60;;;;;;;34.40;22.41;101427.22;4979905;28;20033;-89
2021/06/05 09:18:49;;;;;;;2.95;0.85;;;;;;;35.28;21.37;101430.72;4976853;28;20023;-88
2021/06/05 09:21:25;;;;;;;3.03;1.10;;;;;;;36.13;20.72;101437.91;4992051;28;20014;-89
2021/06/05 09:23:51;;;;;;;3.50;0.75;;;;;;;35.55;20.91;101428.22;4991869;28;20100;-89
2021/06/05 09:26:26;;;;;;;4.97;0.70;;;;;;;36.01;20.92;101437.19;4997614;28;20070;-89
2021/06/05 09:29:18;;;;;;;2.53;0.80;;;;;;;35.31;20.89;101438.41;4995813;28;20011;-89
2021/06/05 09:31:54;;;;;;;3.47;0.88;;;;;;;36.07;21.36;101432.63;4992150;28;20030;-89
2021/06/05 09:34:21;;;;;;;2.72;0.82;;;;;;;36.72;20.89;101442.88;4990932;28;20035;-88
2021/06/05 09:36:47;;;;;;;1.38;0.73;;;;;;;37.02;20.60;101433.38;4992381;28;20047;-89
2021/06/05 09:39:15;;;;;;;2.88;0.73;;;;;;;36.45;20.74;101433.75;4999434;28;20111;-89
2021/06/05 09:41:49;;;;;;;6.38;2.05;;;;;;;36.92;20.66;101434.09;4987232;28;20041;-90
2021/06/05 09:44:20;;;;;;;3.35;0.93;;;;;;;36.44;20.15;101434.84;4986934;28;20019;-90
2021/06/05 09:47:02;;;;;;;4.97;0.73;;;;;;;37.08;20.55;101432.34;5005552;28;20029;-89
2021/06/05 09:49:35;;;;;;;1.40;0.63;;;;;;;37.31;19.72;101424.97;5019959;28;20041;-85
2021/06/05 09:52:09;;;;;;;4.35;1.38;;;;;;;37.77;19.62;101433.59;5012991;28;20039;-86
2021/06/05 09:54:55;;;;;;;1.77;0.60;;;;;;;36.92;19.68;101419.59;4997827;28;20018;-85
2021/06/05 09:57:26;;;;;;;3.45;0.68;;;;;;;37.73;20.07;101426.19;4999958;28;20056;-83
2021/06/05 10:00:08;;;;;;;2.78;0.90;;;;;;;37.81;20.37;101428.44;4999543;28;20035;-84
2021/06/05 10:02:34;;;;;;;2.10;0.90;;;;;;;37.27;20.97;101423.81;4989758;28;20066;-84
2021/06/05 10:07:02;;;;;;;5.97;1.35;;;;;;;36.98;20.87;101425.94;5151057;27;20359;-79
2021/06/05 10:09:30;;;;;;;1.92;0.60;;;;;;;35.85;21.49;101432.56;5130236;27;20043;-79
2021/06/05 10:12:04;;;;;;;3.75;0.93;;;;;;;35.10;22.17;101429.81;5111110;28;20492;-81
2021/06/05 10:14:48;;;;;;;3.40;1.20;;;;;;;33.92;23.32;101429.09;5109011;28;20036;-78
2021/06/05 10:17:37;;;;;;;2.03;0.82;;;;;;;32.47;25.30;101428.88;5106096;28;20032;-77
2021/06/05 10:20:38;;;;;;;2.92;0.77;;;;;;;31.81;27.51;101436.53;5108069;28;20124;-77
2021/06/05 10:23:05;;;;;;;3.30;1.05;;;;;;;30.60;28.04;101432.69;5095629;28;20127;-77
2021/06/05 10:25:54;;;;;;;5.10;1.00;;;;;;;30.64;27.63;101439.34;5108563;28;20039;-77
2021/06/05 10:28:22;;;;;;;3.65;1.00;;;;;;;30.20;28.89;101435.44;5108988;28;20036;-77
2021/06/05 10:30:52;;;;;;;3.80;1.15;;;;;;;30.71;27.61;101425.78;5108575;28;20016;-77
2021/06/05 10:33:39;;;;;;;4.03;1.20;;;;;;;31.59;27.34;101430.63;5109176;28;20464;-77
2021/06/05 10:36:13;;;;;;;4.57;1.23;;;;;;;31.03;26.57;101432.16;5108579;28;20031;-77
2021/06/05 10:38:46;;;;;;;5.15;1.00;;;;;;;31.12;27.38;101437.31;5108591;28;20028;-77
2021/06/05 10:41:19;;;;;;;1.92;0.75;;;;;;;30.41;28.64;101431.69;5108871;28;20035;-77
2021/06/05 10:43:46;;;;;;;3.47;1.30;;;;;;;31.67;26.65;101429.53;5096455;28;20072;-78
2021/06/05 10:46:20;;;;;;;2.55;0.98;;;;;;;33.04;25.38;101436.81;5106032;28;20539;-77
2021/06/05 10:48:47;;;;;;;4.00;0.50;;;;;;;32.65;25.52;101429.97;5109175;28;20023;-78
2021/06/05 10:51:26;;;;;;;3.65;0.60;;;;;;;31.70;26.51;101429.09;5107902;28;20020;-77
2021/06/05 10:53:57;;;;;;;1.98;0.47;;;;;;;31.91;26.17;101424.34;5108782;28;20359;-78
2021/06/05 10:56:35;;;;;;;2.58;0.60;;;;;;;33.74;23.73;101419.13;5099758;28;20054;-77
2021/06/05 10:59:00;;;;;;;2.72;0.60;;;;;;;33.50;24.63;101421.75;5103821;28;20374;-78
2021/06/05 11:01:29;;;;;;;17.77;1.42;;;;;;;34.63;23.61;101423.63;5108120;28;20030;-78
2021/06/05 11:04:00;;;;;;;4.72;0.60;;;;;;;33.31;23.29;101420.16;5108337;28;20148;-78
2021/06/05 11:06:47;;;;;;;1.65;0.47;;;;;;;33.68;21.86;101417.31;5108070;28;20459;-79
2021/06/05 11:09:26;;;;;;;1.52;0.47;;;;;;;34.14;22.95;101412.97;5107908;28;20039;-79
2021/06/05 11:11:53;;;;;;;2.30;0.65;;;;;;;34.11;21.90;101422.47;5106317;28;20066;-79
2021/06/05 11:14:24;;;;;;;1.38;0.52;;;;;;;34.84;22.50;101414.84;5095996;28;20030;-79
2021/06/05 11:16:58;;;;;;;3.20;0.70;;;;;;;34.59;23.16;101409.66;5100544;28;20030;-78
2021/06/05 11:19:33;;;;;;;2.88;0.73;;;;;;;35.43;21.39;101409.16;5095068;28;20027;-79
2021/06/05 11:22:23;;;;;;;2.60;0.50;;;;;;;35.23;21.30;101415.09;5093237;28;20019;-78
2021/06/05 11:25:07;;;;;;;3.58;0.55;;;;;;;35.91;20.60;101412.44;5087895;28;20035;-79
2021/06/05 11:27:35;;;;;;;1.38;0.63;;;;;;;35.81;20.89;101417.75;5092404;28;20398;-79
2021/06/05 11:30:01;;;;;;;2.58;0.82;;;;;;;33.92;21.17;101413.56;5094429;28;20432;-79
2021/06/05 11:32:47;;;;;;;2.42;1.00;;;;;;;35.37;20.13;101412.88;5094266;28;20077;-78
2021/06/05 11:35:32;;;;;;;3.83;0.70;;;;;;;35.33;21.20;101407.06;5094124;28;20032;-79
2021/06/05 11:38:01;;;;;;;26.95;2.25;;;;;;;34.59;20.76;101406.09;5092040;28;20035;-78